createdAt,value
2022-10-18T00:01:25.609Z,6.83
2022-10-18T00:03:53.898Z,7.08
2022-10-18T00:06:21.980Z,7.20
2022-10-18T00:08:50.077Z,7.23
2022-10-18T00:11:18.416Z,6.87
2022-10-18T00:13:48.021Z,6.96
2022-10-18T00:16:17.826Z,6.85
2022-10-18T00:18:48.228Z,6.69
2022-10-18T00:21:19.964Z,6.94
2022-10-18T00:23:49.666Z,7.08
2022-10-18T00:26:19.996Z,7.13
2022-10-18T00:28:53.101Z,7.13
2022-10-18T00:31:23.872Z,7.10
2022-10-18T00:33:55.091Z,7.09
2022-10-18T00:36:23.874Z,7.09
2022-10-18T00:38:52.386Z,6.99
2022-10-18T00:41:22.327Z,6.91
2022-10-18T00:43:58.247Z,6.89
2022-10-18T00:46:28.993Z,6.80
2022-10-18T00:48:59.289Z,6.73
2022-10-18T00:51:32.093Z,6.76
2022-10-18T00:54:00.490Z,6.70
2022-10-18T00:56:29.170Z,6.37
2022-10-18T00:58:59.127Z,6.64
2022-10-18T01:01:28.443Z,6.55
2022-10-18T01:03:58.288Z,6.42
2022-10-18T01:06:28.559Z,6.41
2022-10-18T01:09:21.243Z,6.47
2022-10-18T01:12:05.731Z,6.40
2022-10-18T01:14:46.846Z,6.28
2022-10-18T01:17:20.453Z,6.29
2022-10-18T01:20:17.029Z,6.31
2022-10-18T01:22:47.934Z,6.35
2022-10-18T01:25:28.655Z,6.11
2022-10-18T01:28:03.775Z,6.09
2022-10-18T01:30:41.278Z,5.92
2022-10-18T01:33:18.736Z,6.10
2022-10-18T01:35:53.515Z,6.21
2022-10-18T01:38:23.641Z,6.18
2022-10-18T01:40:54.461Z,6.29
2022-10-18T01:43:25.799Z,6.30
2022-10-18T01:45:57.064Z,6.28
2022-10-18T01:48:25.386Z,6.23
2022-10-18T01:50:54.714Z,6.27
2022-10-18T01:53:25.127Z,6.25
2022-10-18T01:56:06.892Z,6.20
2022-10-18T01:58:42.766Z,6.18
2022-10-18T02:01:20.815Z,6.12
2022-10-18T02:03:56.182Z,6.07
2022-10-18T02:06:30.322Z,6.04
2022-10-18T02:09:04.229Z,6.08
2022-10-18T02:11:35.183Z,6.08
2022-10-18T02:14:09.168Z,6.08
2022-10-18T02:16:42.635Z,6.08
2022-10-18T02:19:15.782Z,5.92
2022-10-18T02:21:45.357Z,5.98
2022-10-18T02:24:19.526Z,5.96
2022-10-18T02:26:47.731Z,5.90
2022-10-18T02:29:16.040Z,5.82
2022-10-18T02:31:48.691Z,5.65
2022-10-18T02:34:21.798Z,5.59
2022-10-18T02:36:53.855Z,5.63
2022-10-18T02:39:25.081Z,5.61
2022-10-18T02:41:54.775Z,5.58
2022-10-18T02:44:22.897Z,5.53
2022-10-18T02:46:53.360Z,5.45
2022-10-18T02:49:21.393Z,5.37
2022-10-18T02:51:49.466Z,5.33
2022-10-18T02:54:17.485Z,5.23
2022-10-18T02:56:45.853Z,5.23
2022-10-18T02:59:14.295Z,5.25
2022-10-18T03:01:42.816Z,5.19
2022-10-18T03:04:12.490Z,5.17
2022-10-18T03:06:40.526Z,5.14
2022-10-18T03:09:08.653Z,5.11
2022-10-18T03:11:36.707Z,5.07
2022-10-18T03:14:04.800Z,5.04
2022-10-18T03:16:34.038Z,5.00
2022-10-18T03:19:02.010Z,5.00
2022-10-18T03:21:31.697Z,4.96
2022-10-18T03:24:00.152Z,4.94
2022-10-18T03:26:28.232Z,4.91
2022-10-18T03:28:57.240Z,4.79
2022-10-18T03:31:25.460Z,4.66
2022-10-18T03:33:53.615Z,4.74
2022-10-18T03:36:22.004Z,4.99
2022-10-18T03:38:51.471Z,5.10
2022-10-18T03:41:20.768Z,5.17
2022-10-18T03:43:48.904Z,5.26
2022-10-18T03:46:17.205Z,5.17
2022-10-18T03:48:45.314Z,5.09
2022-10-18T03:51:13.391Z,4.90
2022-10-18T03:53:42.140Z,5.32
2022-10-18T03:56:11.857Z,5.33
2022-10-18T03:58:39.971Z,5.25
2022-10-18T04:01:08.394Z,5.17
2022-10-18T04:03:36.318Z,5.30
2022-10-18T04:06:04.330Z,5.43
2022-10-18T04:08:32.275Z,5.53
2022-10-18T04:11:00.209Z,5.46
2022-10-18T04:13:29.690Z,5.43
2022-10-18T04:15:58.054Z,5.46
2022-10-18T04:18:26.087Z,5.49
2022-10-18T04:20:54.092Z,5.39
2022-10-18T04:23:22.191Z,5.33
2022-10-18T04:25:50.294Z,5.40
2022-10-18T04:28:18.784Z,5.51
2022-10-18T04:30:52.554Z,5.59
2022-10-18T04:33:20.895Z,5.60
2022-10-18T04:35:52.236Z,5.61
2022-10-18T04:38:20.417Z,5.62
2022-10-18T04:40:48.461Z,5.62
2022-10-18T04:43:16.866Z,5.59
2022-10-18T04:45:46.160Z,5.60
2022-10-18T04:48:15.735Z,5.50
2022-10-18T04:50:43.779Z,5.55
2022-10-18T04:53:11.679Z,5.61
2022-10-18T04:55:39.587Z,5.61
2022-10-18T04:58:07.488Z,5.61
2022-10-18T05:00:39.875Z,5.58
2022-10-18T05:03:08.261Z,5.60
2022-10-18T05:05:49.799Z,5.59
2022-10-18T05:08:25.987Z,5.73
2022-10-18T05:10:54.039Z,5.75
2022-10-18T05:13:22.026Z,5.72
2022-10-18T05:15:50.179Z,5.80
2022-10-18T05:18:18.203Z,5.91
2022-10-18T05:20:48.271Z,5.88
2022-10-18T05:23:16.296Z,6.04
2022-10-18T05:25:44.908Z,6.17
2022-10-18T05:28:38.312Z,6.36
2022-10-18T05:31:03.440Z,6.46
2022-10-18T05:33:31.826Z,6.45
2022-10-18T05:36:01.408Z,6.47
2022-10-18T05:38:31.207Z,6.71
2022-10-18T05:40:59.558Z,6.87
2022-10-18T05:43:29.810Z,6.95
2022-10-18T05:45:58.114Z,7.08
2022-10-18T05:48:26.797Z,7.36
2022-10-18T05:50:55.324Z,7.61
2022-10-18T05:53:36.311Z,7.91
2022-10-18T05:56:05.918Z,8.16
2022-10-18T05:58:34.562Z,8.25
2022-10-18T06:01:03.016Z,8.37
2022-10-18T06:03:31.835Z,8.58
2022-10-18T06:06:03.609Z,8.76
2022-10-18T06:08:33.793Z,9.01
2022-10-18T06:11:07.215Z,9.12
2022-10-18T06:13:35.605Z,9.16
2022-10-18T06:16:03.812Z,9.30
2022-10-18T06:18:32.294Z,9.48
2022-10-18T06:21:01.225Z,9.76
2022-10-18T06:23:29.984Z,9.96
2022-10-18T06:26:02.738Z,10.20
2022-10-18T06:28:31.625Z,10.19
2022-10-18T06:31:00.148Z,10.45
2022-10-18T06:33:28.307Z,10.68
2022-10-18T06:35:58.427Z,10.89
2022-10-18T06:38:27.312Z,11.16
2022-10-18T06:40:56.263Z,11.26
2022-10-18T06:43:27.032Z,11.57
2022-10-18T06:45:55.664Z,11.77
2022-10-18T06:48:24.373Z,11.96
2022-10-18T06:50:54.426Z,12.11
2022-10-18T06:53:22.598Z,12.32
2022-10-18T06:55:50.773Z,12.49
2022-10-18T06:58:19.177Z,12.49
2022-10-18T07:00:48.747Z,12.77
2022-10-18T07:03:17.285Z,12.65
2022-10-18T07:05:45.462Z,12.65
2022-10-18T07:08:13.501Z,12.79
2022-10-18T07:10:41.861Z,12.90
2022-10-18T07:16:05.092Z,13.11
2022-10-18T07:18:34.787Z,13.32
2022-10-18T07:21:04.387Z,13.59
2022-10-18T07:23:33.937Z,13.70
2022-10-18T07:26:02.530Z,13.89
2022-10-18T07:28:31.207Z,14.02
2022-10-18T07:31:06.216Z,14.11
2022-10-18T07:33:38.049Z,13.86
2022-10-18T07:36:08.318Z,14.12
2022-10-18T07:38:37.175Z,14.06
2022-10-18T07:41:07.748Z,14.18
2022-10-18T07:43:36.704Z,14.38
2022-10-18T07:46:06.276Z,14.55
2022-10-18T07:48:36.423Z,14.67
2022-10-18T07:51:04.823Z,14.20
2022-10-18T07:53:34.991Z,14.42
2022-10-18T07:56:08.755Z,14.52
2022-10-18T07:58:37.833Z,14.59
2022-10-18T08:01:08.184Z,14.38
2022-10-18T08:03:38.987Z,14.35
2022-10-18T08:06:09.986Z,14.40
2022-10-18T08:08:40.290Z,14.35
2022-10-18T08:11:10.330Z,14.60
2022-10-18T08:13:38.608Z,14.85
2022-10-18T08:16:08.470Z,14.79
2022-10-18T08:18:38.677Z,14.78
2022-10-18T08:21:08.984Z,14.94
2022-10-18T08:23:38.188Z,15.11
2022-10-18T08:26:08.274Z,15.38
2022-10-18T08:28:37.188Z,15.55
2022-10-18T08:31:06.339Z,15.52
2022-10-18T08:33:36.049Z,15.74
2022-10-18T08:36:07.447Z,15.88
2022-10-18T08:38:37.507Z,16.16
2022-10-18T08:41:28.169Z,16.21
2022-10-18T08:44:07.441Z,16.10
2022-10-18T08:46:38.457Z,16.31
2022-10-18T08:49:08.673Z,16.54
2022-10-18T08:51:43.126Z,16.44
2022-10-18T08:54:15.020Z,16.60
2022-10-18T08:56:53.948Z,16.51
2022-10-18T08:59:24.783Z,16.46
2022-10-18T09:02:04.542Z,16.59
2022-10-18T09:04:46.405Z,16.71
2022-10-18T09:07:27.319Z,16.81
2022-10-18T09:10:04.389Z,17.09
2022-10-18T09:12:52.822Z,17.18
2022-10-18T09:15:26.837Z,17.25
2022-10-18T09:18:10.543Z,17.20
2022-10-18T09:20:51.167Z,17.26
2022-10-18T09:23:23.848Z,17.16
2022-10-18T09:25:57.435Z,17.27
2022-10-18T09:28:38.287Z,17.27
2022-10-18T09:31:14.121Z,17.15
2022-10-18T09:33:49.609Z,17.28
2022-10-18T09:36:22.671Z,17.27
2022-10-18T09:38:57.339Z,17.33
2022-10-18T09:41:30.350Z,17.17
2022-10-18T09:44:03.631Z,17.06
2022-10-18T09:46:35.280Z,17.33
2022-10-18T09:49:05.924Z,17.64
2022-10-18T09:51:37.917Z,17.65
2022-10-18T09:54:19.219Z,17.59
2022-10-18T09:56:52.268Z,17.63
2022-10-18T09:59:33.041Z,17.74
2022-10-18T10:02:01.284Z,17.86
2022-10-18T10:04:30.027Z,17.82
2022-10-18T10:07:02.022Z,17.53
2022-10-18T10:09:37.657Z,17.80
2022-10-18T10:12:06.146Z,17.78
2022-10-18T10:14:45.389Z,17.87
2022-10-18T10:17:26.569Z,18.02
2022-10-18T10:19:58.811Z,17.51
2022-10-18T10:22:32.366Z,17.85
2022-10-18T10:25:02.333Z,17.71
2022-10-18T10:27:33.644Z,17.90
2022-10-18T10:30:07.038Z,18.07
2022-10-18T10:32:47.367Z,18.07
2022-10-18T10:35:35.310Z,17.91
2022-10-18T10:38:24.869Z,17.96
2022-10-18T10:40:55.762Z,17.84
2022-10-18T10:43:42.799Z,18.10
2022-10-18T10:46:14.311Z,18.03
2022-10-18T10:48:50.617Z,18.22
2022-10-18T10:51:29.961Z,18.21
2022-10-18T10:54:04.173Z,18.21
2022-10-18T10:56:37.408Z,18.38
2022-10-18T10:59:17.366Z,18.14
2022-10-18T11:01:47.958Z,18.19
2022-10-18T11:04:28.299Z,18.25
2022-10-18T11:07:06.334Z,18.21
2022-10-18T11:09:55.824Z,18.29
2022-10-18T11:12:33.419Z,18.23
2022-10-18T11:15:20.146Z,18.42
2022-10-18T11:17:57.094Z,18.29
2022-10-18T11:20:31.019Z,18.11
2022-10-18T11:23:02.395Z,18.12
2022-10-18T11:25:56.315Z,18.12
2022-10-18T11:28:38.849Z,18.28
2022-10-18T11:31:16.763Z,18.43
2022-10-18T11:34:08.894Z,18.20
2022-10-18T11:37:02.255Z,18.14
2022-10-18T11:39:48.170Z,18.16
2022-10-18T11:42:24.629Z,18.17
2022-10-18T11:45:05.240Z,18.05
2022-10-18T11:47:43.835Z,18.03
2022-10-18T11:50:26.777Z,17.91
2022-10-18T11:53:02.117Z,17.76
2022-10-18T11:55:43.853Z,18.09
2022-10-18T11:58:28.892Z,18.06
2022-10-18T12:01:06.224Z,18.15
2022-10-18T12:03:40.090Z,18.03
2022-10-18T12:06:13.372Z,18.02
2022-10-18T12:08:45.387Z,18.16
2022-10-18T12:11:19.355Z,18.05
2022-10-18T12:13:51.567Z,18.07
2022-10-18T12:16:45.672Z,18.07
2022-10-18T12:19:23.561Z,18.12
2022-10-18T12:21:55.257Z,18.09
2022-10-18T12:24:27.466Z,18.16
2022-10-18T12:27:00.240Z,18.00
2022-10-18T12:29:33.215Z,17.80
2022-10-18T12:32:08.252Z,17.92
2022-10-18T12:34:41.484Z,18.03
2022-10-18T12:37:31.952Z,18.12
2022-10-18T12:40:10.528Z,17.99
2022-10-18T12:42:44.817Z,17.83
2022-10-18T12:45:30.459Z,17.71
2022-10-18T12:48:03.276Z,17.45
2022-10-18T12:50:36.227Z,17.53
2022-10-18T12:53:08.598Z,17.48
2022-10-18T12:55:38.488Z,17.34
2022-10-18T12:58:27.917Z,17.39
2022-10-18T13:01:02.557Z,17.47
2022-10-18T13:03:54.467Z,17.43
2022-10-18T13:06:25.096Z,17.50
2022-10-18T13:09:19.838Z,17.64
2022-10-18T13:11:48.052Z,17.24
2022-10-18T13:14:37.145Z,17.14
2022-10-18T13:17:23.355Z,17.21
2022-10-18T13:20:24.512Z,17.16
2022-10-18T13:23:04.565Z,16.99
2022-10-18T13:25:41.294Z,16.82
2022-10-18T13:28:24.979Z,16.58
2022-10-18T13:30:58.973Z,16.57
2022-10-18T13:33:33.027Z,16.73
2022-10-18T13:36:04.205Z,16.86
2022-10-18T13:39:03.497Z,16.89
2022-10-18T13:41:35.527Z,16.98
2022-10-18T13:44:28.319Z,16.50
2022-10-18T13:47:36.820Z,16.46
2022-10-18T13:50:32.293Z,16.39
2022-10-18T13:53:35.731Z,16.16
2022-10-18T13:56:31.355Z,16.14
2022-10-18T13:59:31.969Z,16.11
2022-10-18T14:02:49.911Z,16.05
2022-10-18T14:05:29.964Z,15.83
2022-10-18T14:08:09.508Z,15.64
2022-10-18T14:11:01.447Z,15.64
2022-10-18T14:13:41.130Z,15.66
2022-10-18T14:16:27.617Z,15.37
2022-10-18T14:19:02.913Z,15.45
2022-10-18T14:21:37.770Z,15.39
2022-10-18T14:24:19.204Z,15.19
2022-10-18T14:26:48.164Z,15.08
2022-10-18T14:29:21.645Z,14.99
2022-10-18T14:31:56.007Z,14.93
2022-10-18T14:34:24.802Z,14.81
2022-10-18T14:36:53.507Z,14.86
2022-10-18T14:39:25.601Z,14.81
2022-10-18T14:41:55.020Z,14.76
2022-10-18T14:44:28.304Z,14.96
2022-10-18T14:47:02.411Z,14.87
2022-10-18T14:49:31.144Z,14.85
2022-10-18T14:52:02.072Z,15.04
2022-10-18T14:54:33.782Z,15.06
2022-10-18T14:57:03.376Z,15.38
2022-10-18T14:59:36.284Z,15.43
2022-10-18T15:02:13.420Z,15.45
2022-10-18T15:04:45.520Z,15.38
2022-10-18T15:07:17.196Z,15.44
2022-10-18T15:09:46.461Z,15.39
2022-10-18T15:12:16.900Z,15.34
2022-10-18T15:14:47.944Z,15.26
2022-10-18T15:17:22.544Z,15.23
2022-10-18T15:20:05.975Z,15.12
2022-10-18T15:22:35.486Z,15.10
2022-10-18T15:25:17.127Z,15.00
2022-10-18T15:27:48.011Z,14.87
2022-10-18T15:30:25.746Z,14.53
2022-10-18T15:32:56.310Z,14.65
2022-10-18T15:35:28.902Z,14.52
2022-10-18T15:37:58.649Z,14.32
2022-10-18T15:40:39.390Z,14.22
2022-10-18T15:43:40.980Z,14.11
2022-10-18T15:46:32.290Z,13.99
2022-10-18T15:49:48.701Z,13.85
2022-10-18T15:52:38.631Z,13.72
2022-10-18T15:55:44.986Z,13.60
2022-10-18T15:58:17.594Z,13.46
2022-10-18T16:00:47.539Z,13.33
2022-10-18T16:03:18.651Z,13.18
2022-10-18T16:05:46.954Z,13.11
2022-10-18T16:08:23.770Z,12.97
2022-10-18T16:10:52.562Z,12.86
2022-10-18T16:13:21.273Z,12.72
2022-10-18T16:15:49.665Z,12.62
2022-10-18T16:18:21.374Z,12.58
2022-10-18T16:20:50.092Z,12.49
2022-10-18T16:23:21.346Z,12.39
2022-10-18T16:25:50.367Z,12.28
2022-10-18T16:28:20.587Z,12.22
2022-10-18T16:30:54.847Z,12.16
2022-10-18T16:33:24.755Z,12.00
2022-10-18T16:35:53.726Z,11.94
2022-10-18T16:38:32.557Z,11.91
2022-10-18T16:41:04.203Z,11.84
2022-10-18T16:43:32.900Z,11.80
2022-10-18T16:46:01.182Z,11.71
2022-10-18T16:48:30.988Z,11.63
2022-10-18T16:50:59.717Z,11.54
2022-10-18T16:53:28.216Z,11.47
2022-10-18T16:55:59.232Z,11.43
2022-10-18T16:58:28.880Z,11.34
2022-10-18T17:00:57.520Z,11.32
2022-10-18T17:03:26.734Z,11.27
2022-10-18T17:05:57.083Z,11.20
2022-10-18T17:08:27.160Z,11.16
2022-10-18T17:10:57.821Z,11.14
2022-10-18T17:13:27.319Z,11.09
2022-10-18T17:15:55.735Z,11.09
2022-10-18T17:18:27.685Z,11.02
2022-10-18T17:20:57.319Z,10.88
2022-10-18T17:23:25.746Z,10.89
2022-10-18T17:26:06.693Z,10.82
2022-10-18T17:28:42.888Z,10.79
2022-10-18T17:31:11.062Z,10.73
2022-10-18T17:33:39.259Z,10.66
2022-10-18T17:36:09.176Z,10.61
2022-10-18T17:38:37.357Z,10.52
2022-10-18T17:41:08.680Z,10.42
2022-10-18T17:46:13.004Z,10.35
2022-10-18T17:48:41.288Z,10.23
2022-10-18T17:51:12.699Z,10.27
2022-10-18T17:53:40.993Z,10.31
2022-10-18T17:56:09.536Z,10.29
2022-10-18T17:58:38.114Z,10.26
2022-10-18T18:01:14.416Z,10.22
2022-10-18T18:03:43.156Z,10.15
2022-10-18T18:06:18.495Z,10.12
2022-10-18T18:08:47.093Z,10.03
2022-10-18T18:11:16.052Z,10.03
2022-10-18T18:13:44.227Z,10.02
2022-10-18T18:16:15.032Z,9.99
2022-10-18T18:18:43.682Z,9.92
2022-10-18T18:21:12.361Z,9.93
2022-10-18T18:23:42.248Z,9.91
2022-10-18T18:26:10.536Z,9.86
2022-10-18T18:28:39.065Z,9.82
2022-10-18T18:31:08.240Z,9.80
2022-10-18T18:33:36.567Z,9.77
2022-10-18T18:36:05.449Z,9.71
2022-10-18T18:38:35.097Z,9.69
2022-10-18T18:41:10.076Z,9.60
2022-10-18T18:43:39.284Z,9.63
2022-10-18T18:46:07.626Z,9.61
2022-10-18T18:48:36.837Z,9.60
2022-10-18T18:51:06.374Z,9.54
2022-10-18T18:53:34.491Z,9.55
2022-10-18T18:56:04.307Z,9.56
2022-10-18T18:58:35.598Z,9.47
2022-10-18T19:01:08.365Z,9.41
2022-10-18T19:03:38.514Z,9.43
2022-10-18T19:06:08.054Z,9.37
2022-10-18T19:08:37.809Z,9.23
2022-10-18T19:11:09.188Z,9.28
2022-10-18T19:13:39.296Z,9.28
2022-10-18T19:16:22.614Z,9.35
2022-10-18T19:18:56.427Z,9.38
2022-10-18T19:21:28.635Z,9.37
2022-10-18T19:23:57.431Z,9.36
2022-10-18T19:26:29.782Z,9.32
2022-10-18T19:29:07.982Z,9.28
2022-10-18T19:31:36.707Z,9.28
2022-10-18T19:34:05.702Z,9.26
2022-10-18T19:36:33.895Z,9.22
2022-10-18T19:39:02.727Z,9.22
2022-10-18T19:41:31.069Z,9.14
2022-10-18T19:43:59.712Z,9.11
2022-10-18T19:46:29.252Z,9.05
2022-10-18T19:48:57.621Z,9.05
2022-10-18T19:51:28.367Z,9.03
2022-10-18T19:53:57.933Z,8.82
2022-10-18T19:56:28.175Z,8.63
2022-10-18T19:58:57.576Z,8.69
2022-10-18T20:01:26.305Z,8.75
2022-10-18T20:03:56.196Z,8.75
2022-10-18T20:06:24.789Z,8.75
2022-10-18T20:08:53.367Z,8.73
2022-10-18T20:11:24.147Z,8.75
2022-10-18T20:13:53.317Z,8.73
2022-10-18T20:16:27.881Z,8.71
2022-10-18T20:18:59.068Z,8.78
2022-10-18T20:21:29.517Z,8.78
2022-10-18T20:23:58.918Z,8.76
2022-10-18T20:26:27.237Z,8.71
2022-10-18T20:28:58.137Z,8.57
2022-10-18T20:31:28.631Z,8.60
2022-10-18T20:34:00.356Z,8.64
2022-10-18T20:36:29.878Z,8.72
2022-10-18T20:38:58.578Z,8.72
2022-10-18T20:41:29.196Z,8.72
2022-10-18T20:43:59.461Z,8.65
2022-10-18T20:46:28.286Z,8.66
2022-10-18T20:48:56.415Z,8.63
2022-10-18T20:51:26.694Z,8.52
2022-10-18T20:53:55.308Z,8.60
2022-10-18T20:56:26.735Z,8.15
2022-10-18T20:58:57.246Z,7.90
2022-10-18T21:01:27.447Z,7.92
2022-10-18T21:03:57.416Z,7.98
2022-10-18T21:06:28.400Z,8.23
2022-10-18T21:08:58.543Z,8.29
2022-10-18T21:11:28.265Z,8.34
2022-10-18T21:13:59.128Z,8.52
2022-10-18T21:16:28.086Z,8.63
2022-10-18T21:18:56.499Z,8.72
2022-10-18T21:21:26.811Z,8.70
2022-10-18T21:23:55.275Z,8.55
2022-10-18T21:26:25.656Z,8.57
2022-10-18T21:28:55.442Z,8.65
2022-10-18T21:31:25.733Z,8.65
2022-10-18T21:33:55.531Z,8.60
2022-10-18T21:36:24.309Z,8.48
2022-10-18T21:38:54.608Z,8.51
2022-10-18T21:41:23.472Z,8.53
2022-10-18T21:43:53.563Z,8.53
2022-10-18T21:46:23.847Z,8.55
2022-10-18T21:48:53.929Z,8.53
2022-10-18T21:51:25.626Z,8.43
2022-10-18T21:53:57.094Z,8.30
2022-10-18T21:56:27.181Z,8.36
2022-10-18T21:58:55.825Z,8.36
2022-10-18T22:01:26.301Z,8.34
2022-10-18T22:03:56.226Z,8.36
2022-10-18T22:06:25.144Z,8.35
2022-10-18T22:08:56.463Z,8.29
2022-10-18T22:11:28.847Z,8.17
2022-10-18T22:13:57.196Z,8.18
2022-10-18T22:16:25.558Z,8.32
2022-10-18T22:18:54.894Z,8.33
2022-10-18T22:21:22.863Z,8.29
2022-10-18T22:23:52.753Z,8.28
2022-10-18T22:26:24.493Z,8.33
2022-10-18T22:28:57.025Z,8.32
2022-10-18T22:31:27.876Z,8.31
2022-10-18T22:33:57.095Z,8.35
2022-10-18T22:36:26.390Z,8.29
2022-10-18T22:38:54.693Z,8.36
2022-10-18T22:41:24.332Z,8.29
2022-10-18T22:43:53.482Z,8.36
2022-10-18T22:46:22.200Z,8.35
2022-10-18T22:48:50.996Z,8.36
2022-10-18T22:51:19.874Z,8.19
2022-10-18T22:53:48.098Z,8.23
2022-10-18T22:56:18.379Z,8.18
2022-10-18T22:58:48.127Z,8.12
2022-10-18T23:01:18.003Z,8.16
2022-10-18T23:03:46.135Z,8.19
2022-10-18T23:06:22.580Z,8.15
2022-10-18T23:08:51.496Z,8.29
2022-10-18T23:11:20.078Z,8.31
2022-10-18T23:13:49.685Z,8.28
2022-10-18T23:16:18.669Z,8.24
2022-10-18T23:18:50.708Z,8.27
2022-10-18T23:21:19.357Z,8.28
2022-10-18T23:23:47.855Z,8.30
2022-10-18T23:26:17.600Z,8.28
2022-10-18T23:28:47.444Z,8.22
2022-10-18T23:31:19.164Z,8.14
2022-10-18T23:33:48.482Z,8.14
2022-10-18T23:36:17.358Z,8.09
2022-10-18T23:38:45.971Z,8.03
2022-10-18T23:41:15.581Z,8.06
2022-10-18T23:43:44.827Z,8.02
2022-10-18T23:46:14.490Z,7.98
2022-10-18T23:48:44.574Z,7.98
2022-10-18T23:51:12.658Z,7.89
2022-10-18T23:53:41.262Z,7.81
2022-10-18T23:56:11.843Z,7.81
2022-10-18T23:58:40.862Z,7.76
